Terminal Aerodrome Forecast
Issued by NWS Wakefield, VA

Home | Current Version | Previous Version | Text Only | Print | Product List | Glossary On
Versions: 1 2 3 4 5 6 7 8 9 10 11 12 13 14 15 16 17 18
145
FTUS41 KAKQ 260538
TAFSBY
TAF
KSBY 260538Z 2606/2706 24005KT P6SM SCT100
     FM261100 28004KT P6SM SCT100
     FM262200 24005KT P6SM SCT100
     FM270000 VRB04KT P6SM BKN100=

USA.gov is the U.S. government's official web portal to all federal, state and local government web resources and services.